Time;durP1;ratioP1;P1;durP2;ratioP2;P2;SDS_P1;SDS_P2;PMS_P1;PMS_P2;Temp;Humidity;BMP_temperature;BMP_pressure;BME280_temperature;BME280_humidity;BME280_pressure;Samples;Min_cycle;Max_cycle;Signal;HPM_P1;HPM_P2
2021/12/11 00:01:15;;;;;;;2.10;1.80;;;4.20;99.90;;;;;;6183974;23;20365;-75
2021/12/11 00:03:45;;;;;;;2.38;1.80;;;4.20;99.90;;;;;;6183758;23;20024;-75
2021/12/11 00:06:17;;;;;;;1.98;1.80;;;4.20;99.90;;;;;;6184002;23;20021;-75
2021/12/11 00:08:45;;;;;;;1.55;1.45;;;4.20;99.90;;;;;;6183936;23;19997;-75
2021/12/11 00:11:19;;;;;;;1.40;1.30;;;4.20;99.90;;;;;;6182280;23;20009;-75
2021/12/11 00:13:46;;;;;;;2.30;1.60;;;4.20;99.90;;;;;;6184016;23;20021;-75
2021/12/11 00:16:17;;;;;;;1.80;1.70;;;4.20;99.90;;;;;;6182353;23;20426;-75
2021/12/11 00:18:43;;;;;;;1.50;1.40;;;4.20;99.90;;;;;;6183617;23;20004;-75
2021/12/11 00:21:17;;;;;;;1.67;1.58;;;4.20;99.90;;;;;;6184244;23;20024;-75
2021/12/11 00:23:49;;;;;;;1.73;1.50;;;4.20;99.90;;;;;;6184450;23;20001;-75
2021/12/11 00:26:24;;;;;;;3.28;1.55;;;4.20;99.90;;;;;;6184800;23;20001;-75
2021/12/11 00:28:51;;;;;;;1.33;1.23;;;4.20;99.90;;;;;;6184281;23;20008;-75
2021/12/11 00:31:17;;;;;;;1.30;1.20;;;4.10;99.90;;;;;;6183810;23;20080;-75
2021/12/11 00:33:44;;;;;;;1.40;1.30;;;4.10;99.90;;;;;;6184036;23;20008;-75
2021/12/11 00:36:13;;;;;;;2.10;1.90;;;4.10;99.90;;;;;;6183939;23;20041;-75
2021/12/11 00:38:40;;;;;;;3.97;2.08;;;4.00;99.90;;;;;;6183719;23;20100;-75
2021/12/11 00:41:12;;;;;;;2.30;2.10;;;3.90;99.90;;;;;;6183709;23;20081;-75
2021/12/11 00:43:40;;;;;;;2.08;1.92;;;3.80;99.90;;;;;;6183777;23;20021;-75
2021/12/11 00:46:13;;;;;;;1.80;1.70;;;3.80;99.90;;;;;;6183818;23;20005;-75
2021/12/11 00:48:40;;;;;;;1.85;1.75;;;3.80;99.90;;;;;;6183577;23;19997;-75
2021/12/11 00:51:07;;;;;;;1.30;1.10;;;3.90;99.90;;;;;;6183950;23;20218;-75
2021/12/11 00:53:41;;;;;;;1.25;1.17;;;3.90;99.90;;;;;;6183527;23;20009;-75
2021/12/11 00:56:15;;;;;;;1.65;1.55;;;3.90;99.90;;;;;;6183965;23;19997;-75
2021/12/11 00:58:42;;;;;;;1.98;1.85;;;3.90;99.90;;;;;;6183730;23;20044;-75
2021/12/11 01:01:08;;;;;;;3.47;2.03;;;3.80;99.90;;;;;;6183915;23;20001;-75
2021/12/11 01:03:47;;;;;;;1.35;1.25;;;3.80;99.90;;;;;;6183596;23;20009;-75
2021/12/11 01:06:24;;;;;;;1.60;1.50;;;3.80;99.90;;;;;;6183150;23;20001;-75
2021/12/11 01:08:58;;;;;;;3.27;1.73;;;3.80;99.90;;;;;;6182843;23;20016;-75
2021/12/11 01:11:27;;;;;;;1.60;1.50;;;3.90;99.90;;;;;;6183616;23;20008;-75
2021/12/11 01:14:08;;;;;;;1.92;1.83;;;3.80;99.90;;;;;;6183503;23;20009;-75
2021/12/11 01:16:36;;;;;;;2.10;1.92;;;3.70;99.90;;;;;;6182006;23;20108;-75
2021/12/11 01:19:04;;;;;;;1.70;1.60;;;3.70;99.90;;;;;;6183598;23;20012;-75
2021/12/11 01:27:19;;;;;;;1.27;1.17;;;3.60;99.90;;;;;;6149782;23;20371;-75
2021/12/11 01:29:47;;;;;;;1.33;1.20;;;3.50;99.90;;;;;;6181609;23;20033;-75
2021/12/11 01:32:14;;;;;;;0.73;0.73;;;3.60;99.90;;;;;;6184856;23;20469;-75
2021/12/11 01:34:40;;;;;;;1.27;1.23;;;3.70;99.90;;;;;;6185359;23;20489;-75
2021/12/11 01:37:07;;;;;;;2.63;1.30;;;3.60;99.90;;;;;;6185501;23;20008;-75
2021/12/11 01:39:36;;;;;;;0.97;0.97;;;3.70;99.90;;;;;;6183487;23;20009;-75
2021/12/11 01:42:09;;;;;;;1.90;1.03;;;4.00;99.90;;;;;;6185235;23;19997;-75
2021/12/11 01:44:37;;;;;;;0.98;0.98;;;4.20;99.90;;;;;;6185248;23;20001;-75
2021/12/11 01:47:10;;;;;;;0.77;0.77;;;4.40;99.90;;;;;;6185175;23;20009;-75
2021/12/11 01:49:38;;;;;;;1.30;1.20;;;4.60;99.90;;;;;;6183527;23;20043;-75
2021/12/11 01:52:18;;;;;;;1.55;1.20;;;4.70;99.90;;;;;;6183502;23;20333;-75
2021/12/11 01:54:47;;;;;;;0.80;0.80;;;4.90;99.90;;;;;;6185276;23;20008;-75
2021/12/11 01:57:24;;;;;;;1.50;1.17;;;5.00;99.90;;;;;;6185224;23;20009;-75
2021/12/11 02:00:21;;;;;;;1.10;1.10;;;5.10;99.90;;;;;;6184907;23;20088;-75
2021/12/11 02:02:51;;;;;;;1.05;0.90;;;5.20;99.90;;;;;;6159233;23;20084;-75
2021/12/11 02:05:24;;;;;;;1.20;1.13;;;5.30;99.90;;;;;;6183263;23;20012;-74
2021/12/11 02:07:54;;;;;;;1.38;1.27;;;5.30;99.90;;;;;;6185255;23;20330;-75
2021/12/11 02:10:22;;;;;;;1.20;1.10;;;5.30;99.90;;;;;;6184972;23;20438;-74
2021/12/11 02:12:50;;;;;;;1.20;1.10;;;5.30;99.90;;;;;;6184776;23;20056;-75
2021/12/11 02:15:27;;;;;;;0.90;0.88;;;5.40;99.90;;;;;;6184891;23;20269;-74
2021/12/11 02:18:13;;;;;;;0.90;0.90;;;5.50;99.90;;;;;;6183430;23;20088;-75
2021/12/11 02:20:49;;;;;;;1.00;1.00;;;5.40;99.90;;;;;;6183217;23;20009;-74
2021/12/11 02:23:15;;;;;;;1.33;0.90;;;5.50;99.90;;;;;;6184807;23;19997;-74
2021/12/11 02:25:48;;;;;;;0.95;0.88;;;5.50;99.90;;;;;;6184817;23;20024;-75
2021/12/11 02:28:42;;;;;;;1.00;1.00;;;5.60;99.90;;;;;;6184885;23;20430;-75
2021/12/11 02:31:36;;;;;;;1.20;1.10;;;5.60;99.90;;;;;;6138836;23;20005;-75
2021/12/11 02:34:35;;;;;;;0.80;0.80;;;5.70;99.90;;;;;;6183199;23;20051;-74
2021/12/11 02:37:04;;;;;;;1.00;1.00;;;5.70;99.90;;;;;;6184730;23;20035;-74
2021/12/11 02:39:46;;;;;;;0.90;0.90;;;5.60;99.90;;;;;;6184667;23;20377;-74
2021/12/11 02:42:30;;;;;;;1.00;1.00;;;5.70;99.90;;;;;;6184331;23;20001;-74
2021/12/11 02:45:13;;;;;;;0.77;0.77;;;5.70;99.90;;;;;;6184613;23;20318;-74
2021/12/11 02:48:01;;;;;;;0.88;0.88;;;5.70;99.90;;;;;;6184650;23;19997;-74
2021/12/11 02:50:29;;;;;;;0.90;0.90;;;5.70;99.90;;;;;;6184321;23;20012;-74
2021/12/11 02:53:06;;;;;;;0.73;0.73;;;5.70;99.90;;;;;;6184536;23;20012;-74
2021/12/11 02:55:32;;;;;;;0.63;0.63;;;5.70;99.90;;;;;;6184463;23;20005;-74
2021/12/11 02:58:06;;;;;;;0.88;0.88;;;5.70;99.90;;;;;;6184501;23;20397;-74
2021/12/11 03:00:41;;;;;;;0.80;0.80;;;5.70;99.90;;;;;;6182510;23;20013;-74
2021/12/11 03:03:10;;;;;;;0.85;0.85;;;5.70;99.90;;;;;;6182526;23;20008;-74
2021/12/11 03:06:01;;;;;;;1.60;0.93;;;5.70;99.80;;;;;;6184142;23;20332;-74
2021/12/11 03:08:27;;;;;;;1.83;0.90;;;5.80;99.70;;;;;;6184505;23;20004;-74
2021/12/11 03:10:58;;;;;;;0.60;0.60;;;5.80;99.90;;;;;;6184108;23;20005;-74
2021/12/11 03:13:27;;;;;;;0.60;0.60;;;5.80;99.10;;;;;;6184348;23;20445;-74
2021/12/11 03:15:53;;;;;;;0.65;0.65;;;5.80;99.70;;;;;;6184177;23;20005;-74
2021/12/11 03:18:19;;;;;;;0.90;0.90;;;5.80;99.90;;;;;;6184273;23;20008;-74
2021/12/11 03:20:47;;;;;;;1.05;1.05;;;5.70;99.90;;;;;;6182445;23;20092;-74
2021/12/11 03:23:14;;;;;;;1.20;1.10;;;5.70;99.90;;;;;;6184093;23;20397;-74
2021/12/11 03:25:40;;;;;;;0.75;0.75;;;5.80;99.90;;;;;;6184209;23;20329;-74
2021/12/11 03:28:08;;;;;;;0.98;0.93;;;5.80;99.90;;;;;;6184301;23;20005;-74
2021/12/11 03:30:40;;;;;;;1.50;1.40;;;5.70;99.90;;;;;;6183775;23;20029;-74
2021/12/11 03:33:17;;;;;;;1.98;1.88;;;5.60;99.90;;;;;;6182628;23;20005;-74
2021/12/11 03:35:44;;;;;;;2.28;2.10;;;5.50;99.90;;;;;;6184203;23;20012;-74
2021/12/11 03:38:12;;;;;;;2.38;2.10;;;5.20;99.90;;;;;;6184171;23;20532;-74
2021/12/11 03:40:38;;;;;;;1.90;1.80;;;5.10;99.90;;;;;;6183764;23;20005;-74
2021/12/11 03:43:09;;;;;;;2.25;2.15;;;5.10;99.90;;;;;;6183913;23;20025;-74
2021/12/11 03:45:38;;;;;;;1.80;1.70;;;4.90;99.90;;;;;;6183846;23;20023;-74
2021/12/11 03:48:20;;;;;;;2.13;2.03;;;4.80;99.90;;;;;;6183914;23;20352;-74
2021/12/11 03:50:46;;;;;;;3.33;2.40;;;4.70;99.90;;;;;;6184026;23;19993;-74
2021/12/11 03:53:14;;;;;;;2.50;2.17;;;4.60;99.90;;;;;;6183654;23;20005;-74
2021/12/11 03:55:45;;;;;;;2.70;2.40;;;4.50;99.90;;;;;;6183612;23;20063;-74
2021/12/11 03:58:11;;;;;;;3.92;2.83;;;4.50;99.90;;;;;;6183790;23;20149;-74
2021/12/11 04:00:46;;;;;;;2.33;2.00;;;4.50;99.90;;;;;;6182243;23;20038;-74
2021/12/11 04:03:15;;;;;;;3.92;2.50;;;4.40;99.90;;;;;;6183592;23;20445;-74
2021/12/11 04:05:44;;;;;;;3.55;2.70;;;4.40;99.90;;;;;;6183789;23;20028;-74
2021/12/11 04:08:16;;;;;;;6.03;2.15;;;4.30;99.90;;;;;;6183754;23;20001;-74
2021/12/11 04:10:42;;;;;;;2.22;2.10;;;4.30;99.90;;;;;;6183767;23;20012;-74
2021/12/11 04:13:10;;;;;;;2.53;2.10;;;4.30;99.90;;;;;;6184045;23;20001;-74
2021/12/11 04:15:39;;;;;;;2.17;2.05;;;4.30;99.90;;;;;;6183970;23;20013;-74
2021/12/11 04:18:07;;;;;;;2.40;2.20;;;4.20;99.90;;;;;;6184266;23;20105;-74
2021/12/11 04:20:36;;;;;;;2.50;2.30;;;4.10;99.90;;;;;;6184786;23;20038;-74
2021/12/11 04:23:03;;;;;;;2.55;2.35;;;4.00;99.90;;;;;;6183808;23;20001;-74
2021/12/11 04:25:30;;;;;;;2.25;2.00;;;4.00;99.90;;;;;;6183744;23;20056;-74
2021/12/11 04:27:57;;;;;;;2.22;2.10;;;4.00;99.90;;;;;;6183437;23;20011;-74
2021/12/11 04:30:25;;;;;;;2.35;2.15;;;4.00;99.90;;;;;;6183384;23;20032;-74
2021/12/11 04:32:52;;;;;;;2.47;2.28;;;4.00;99.90;;;;;;6183514;23;20001;-74
2021/12/11 04:35:21;;;;;;;2.42;2.22;;;4.00;99.90;;;;;;6183754;23;20001;-74
2021/12/11 04:37:47;;;;;;;2.00;1.90;;;4.00;99.90;;;;;;6183743;23;20079;-74
2021/12/11 04:40:20;;;;;;;2.08;1.48;;;4.10;99.90;;;;;;6183297;23;20005;-74
2021/12/11 04:45:38;;;;;;;1.65;1.55;;;4.10;99.90;;;;;;6183713;23;20228;-74
2021/12/11 04:48:19;;;;;;;2.17;1.45;;;4.10;99.90;;;;;;6183624;23;20433;-74
2021/12/11 04:50:55;;;;;;;1.98;1.88;;;4.10;99.90;;;;;;6183505;23;20578;-74
2021/12/11 05:03:49;;;;;;;1.52;1.30;;;3.90;99.90;;;;;;6183465;23;20024;-74
2021/12/11 05:11:38;;;;;;;1.38;1.20;;;4.10;99.90;;;;;;6185361;23;20020;-74
2021/12/11 05:14:07;;;;;;;1.55;1.45;;;4.10;99.90;;;;;;6185592;23;20063;-74
2021/12/11 05:16:33;;;;;;;1.50;1.40;;;4.10;99.90;;;;;;6185538;23;20001;-74
2021/12/11 05:18:59;;;;;;;2.20;1.20;;;4.10;99.90;;;;;;6185068;23;20001;-74
2021/12/11 05:21:25;;;;;;;1.45;1.35;;;4.10;99.90;;;;;;6185432;23;20002;-74
2021/12/11 05:23:51;;;;;;;1.50;1.40;;;4.00;99.90;;;;;;6185400;23;20136;-74
2021/12/11 05:26:19;;;;;;;1.73;1.63;;;4.00;99.90;;;;;;6183599;23;20001;-74
2021/12/11 05:28:46;;;;;;;1.57;1.47;;;4.00;99.90;;;;;;6185133;23;19997;-74
2021/12/11 05:31:12;;;;;;;1.77;1.67;;;4.00;99.90;;;;;;6185253;23;20429;-74
2021/12/11 05:33:38;;;;;;;2.88;2.40;;;4.00;99.90;;;;;;6185034;23;20004;-74
2021/12/11 05:36:06;;;;;;;2.28;2.08;;;4.00;99.90;;;;;;6185178;23;20029;-74
2021/12/11 05:38:35;;;;;;;2.85;2.60;;;4.00;99.90;;;;;;6185139;23;19996;-74
2021/12/11 05:41:03;;;;;;;2.63;2.33;;;3.90;99.90;;;;;;6185119;23;20005;-74
2021/12/11 05:43:30;;;;;;;2.75;2.10;;;3.80;99.90;;;;;;6185113;23;20370;-74
2021/12/11 05:45:56;;;;;;;2.00;1.90;;;3.80;99.90;;;;;;6183418;23;20084;-74
2021/12/11 05:48:22;;;;;;;2.65;2.30;;;3.80;99.90;;;;;;6184969;23;20116;-74
2021/12/11 05:50:53;;;;;;;2.55;2.03;;;3.70;99.90;;;;;;6185082;23;20477;-74
2021/12/11 05:53:20;;;;;;;2.90;2.33;;;3.70;99.90;;;;;;6183565;23;20009;-74
2021/12/11 05:55:49;;;;;;;3.00;2.00;;;3.50;99.90;;;;;;6184964;23;20009;-74
2021/12/11 05:58:24;;;;;;;1.77;1.65;;;3.50;99.90;;;;;;6184849;23;20135;-74
2021/12/11 06:00:52;;;;;;;2.27;2.07;;;3.50;99.90;;;;;;6184729;23;20338;-74
2021/12/11 06:03:18;;;;;;;1.70;1.60;;;3.50;99.90;;;;;;6183164;23;20201;-74
2021/12/11 06:05:44;;;;;;;2.53;1.80;;;3.40;99.90;;;;;;6184830;23;20086;-74
2021/12/11 06:08:11;;;;;;;1.98;1.77;;;3.30;99.90;;;;;;6185047;23;20001;-74
2021/12/11 06:10:40;;;;;;;1.90;1.80;;;3.30;99.90;;;;;;6184725;23;20001;-74
2021/12/11 06:13:07;;;;;;;4.17;1.90;;;3.20;99.90;;;;;;6184818;23;20437;-74
2021/12/11 06:15:33;;;;;;;2.30;2.10;;;3.10;99.90;;;;;;6184712;23;20417;-74
2021/12/11 06:17:59;;;;;;;1.87;1.70;;;3.10;99.90;;;;;;6184215;23;20446;-74
2021/12/11 06:20:28;;;;;;;1.43;1.37;;;3.10;99.90;;;;;;6184376;23;20005;-74
2021/12/11 06:22:54;;;;;;;1.48;1.30;;;3.30;99.90;;;;;;6183014;23;20029;-74
2021/12/11 06:25:28;;;;;;;1.83;1.43;;;3.30;99.90;;;;;;6184694;23;20028;-74
2021/12/11 06:27:55;;;;;;;1.40;1.30;;;3.40;99.90;;;;;;6182903;23;20013;-74
2021/12/11 06:30:22;;;;;;;1.43;1.10;;;3.50;99.90;;;;;;6184750;23;20388;-74
2021/12/11 06:32:49;;;;;;;1.83;1.50;;;3.60;99.90;;;;;;6184919;23;20008;-74
2021/12/11 06:35:22;;;;;;;1.87;1.77;;;3.70;99.90;;;;;;6184691;23;20001;-74
2021/12/11 06:37:48;;;;;;;0.97;0.97;;;3.70;99.90;;;;;;6184557;23;20001;-74
2021/12/11 06:40:16;;;;;;;1.40;1.30;;;3.70;99.90;;;;;;6182425;23;20011;-74
2021/12/11 06:42:42;;;;;;;1.83;1.20;;;3.80;99.90;;;;;;6184619;23;20004;-74
2021/12/11 06:45:08;;;;;;;1.83;1.30;;;3.90;99.90;;;;;;6184689;23;20001;-74
2021/12/11 06:47:34;;;;;;;1.50;1.40;;;3.90;99.90;;;;;;6184345;23;20495;-74
2021/12/11 06:50:03;;;;;;;1.83;1.40;;;4.00;99.90;;;;;;6182813;23;20009;-74
2021/12/11 06:52:29;;;;;;;1.97;1.87;;;4.10;99.90;;;;;;6184508;23;20008;-73
2021/12/11 06:54:55;;;;;;;1.73;1.63;;;4.00;99.90;;;;;;6184591;23;20005;-74
2021/12/11 06:57:22;;;;;;;2.10;1.73;;;4.00;99.90;;;;;;6184290;23;20345;-74
2021/12/11 06:59:47;;;;;;;1.65;1.20;;;4.00;99.90;;;;;;6182647;23;20005;-74
2021/12/11 07:02:16;;;;;;;1.45;1.35;;;4.10;99.90;;;;;;6184306;23;20075;-73
2021/12/11 07:04:42;;;;;;;1.60;1.50;;;4.10;99.90;;;;;;6184072;23;20019;-74
2021/12/11 07:07:08;;;;;;;1.33;1.23;;;4.20;99.90;;;;;;6184264;23;20323;-74
2021/12/11 07:09:34;;;;;;;1.40;0.90;;;4.20;99.90;;;;;;6184292;23;20001;-74
2021/12/11 07:12:00;;;;;;;1.25;1.20;;;4.20;99.90;;;;;;6184265;23;20009;-74
2021/12/11 07:14:29;;;;;;;0.80;0.80;;;4.40;99.90;;;;;;6184151;23;20008;-73
2021/12/11 07:16:55;;;;;;;0.60;0.60;;;4.50;99.90;;;;;;6184284;23;20001;-74
2021/12/11 07:19:22;;;;;;;0.80;0.80;;;4.80;99.90;;;;;;6184109;23;20012;-73
2021/12/11 07:21:50;;;;;;;0.73;0.73;;;5.00;98.00;;;;;;6182320;23;20005;-73
2021/12/11 07:24:41;;;;;;;0.68;0.68;;;5.40;96.40;;;;;;6184181;23;19997;-73
2021/12/11 07:27:10;;;;;;;2.10;1.55;;;5.60;94.80;;;;;;6183387;23;20005;-73
2021/12/11 07:29:36;;;;;;;0.60;0.60;;;5.70;94.50;;;;;;6183771;23;20388;-73
2021/12/11 07:32:04;;;;;;;0.50;0.50;;;5.80;94.00;;;;;;6183698;23;20337;-73
2021/12/11 07:34:29;;;;;;;3.03;1.10;;;5.90;93.50;;;;;;6182246;23;20055;-73
2021/12/11 07:36:56;;;;;;;5.13;1.50;;;6.00;92.50;;;;;;6183911;23;20005;-73
2021/12/11 07:39:24;;;;;;;2.08;1.05;;;6.20;91.90;;;;;;6182169;23;20092;-73
2021/12/11 07:41:53;;;;;;;0.77;0.77;;;6.20;91.50;;;;;;6184628;23;20429;-73
2021/12/11 07:44:20;;;;;;;0.50;0.50;;;6.40;90.60;;;;;;6184813;23;19993;-73
2021/12/11 07:46:46;;;;;;;0.85;0.85;;;6.50;90.50;;;;;;6185259;23;20001;-73
2021/12/11 07:49:12;;;;;;;0.70;0.70;;;6.50;90.50;;;;;;6185027;23;20088;-73
2021/12/11 07:51:38;;;;;;;1.98;0.68;;;6.70;88.00;;;;;;6184508;23;20001;-78
2021/12/11 07:54:06;;;;;;;0.60;0.60;;;6.90;86.10;;;;;;6182564;23;20012;-78
2021/12/11 07:56:32;;;;;;;0.63;0.63;;;7.00;86.50;;;;;;6180896;23;20470;-79
2021/12/11 07:59:00;;;;;;;0.50;0.50;;;7.10;84.70;;;;;;6182023;23;20000;-78
2021/12/11 08:01:30;;;;;;;0.50;0.50;;;7.20;83.40;;;;;;6182169;23;20001;-78
2021/12/11 08:03:59;;;;;;;0.40;0.40;;;7.40;81.90;;;;;;6182609;23;20095;-78
2021/12/11 08:06:25;;;;;;;0.75;0.50;;;7.40;82.80;;;;;;6183302;23;20055;-78
2021/12/11 08:08:51;;;;;;;0.50;0.50;;;7.40;84.90;;;;;;6183855;23;19997;-78
2021/12/11 08:11:19;;;;;;;0.50;0.50;;;7.30;83.80;;;;;;6183797;23;20001;-78
2021/12/11 08:13:47;;;;;;;0.60;0.60;;;7.30;83.90;;;;;;6184212;23;20004;-78
2021/12/11 08:16:19;;;;;;;0.73;0.73;;;7.30;82.90;;;;;;6183825;23;19996;-78
2021/12/11 08:18:45;;;;;;;0.60;0.60;;;7.40;82.30;;;;;;6183840;23;19997;-79
2021/12/11 08:21:11;;;;;;;0.60;0.60;;;7.50;79.10;;;;;;6181986;23;20005;-79
2021/12/11 08:23:43;;;;;;;0.50;0.50;;;7.50;80.40;;;;;;6183342;23;20001;-78
2021/12/11 08:26:19;;;;;;;1.00;0.60;;;7.50;81.90;;;;;;6183859;23;20425;-79
2021/12/11 08:28:46;;;;;;;0.70;0.70;;;7.60;78.70;;;;;;6183732;23;19997;-78
2021/12/11 08:31:14;;;;;;;0.60;0.60;;;7.60;81.00;;;;;;6184067;23;19997;-79
2021/12/11 08:33:41;;;;;;;1.38;0.47;;;7.60;81.30;;;;;;6182294;23;20078;-79
2021/12/11 08:36:08;;;;;;;0.40;0.40;;;7.60;81.10;;;;;;6183732;23;20001;-79
2021/12/11 08:38:34;;;;;;;0.60;0.60;;;7.70;79.00;;;;;;6183622;23;20027;-79
2021/12/11 08:41:02;;;;;;;0.60;0.60;;;7.70;80.20;;;;;;6183281;23;20429;-79
2021/12/11 08:43:28;;;;;;;0.40;0.40;;;7.70;78.60;;;;;;6182228;23;20080;-79
2021/12/11 08:46:08;;;;;;;0.70;0.70;;;7.90;77.20;;;;;;6183163;23;20437;-79
2021/12/11 08:48:36;;;;;;;0.82;0.82;;;7.90;76.30;;;;;;6182122;23;19997;-79
2021/12/11 08:51:10;;;;;;;0.50;0.50;;;8.00;76.50;;;;;;6181024;23;20068;-79
2021/12/11 08:53:37;;;;;;;0.43;0.43;;;8.10;75.70;;;;;;6183840;23;20004;-79
2021/12/11 08:56:06;;;;;;;0.82;0.55;;;8.10;76.90;;;;;;6183571;23;20005;-79
2021/12/11 08:58:32;;;;;;;0.70;0.70;;;8.10;77.00;;;;;;6183502;23;20011;-79
2021/12/11 09:01:13;;;;;;;0.38;0.38;;;8.10;76.90;;;;;;6183455;23;20037;-78
2021/12/11 09:03:51;;;;;;;0.70;0.70;;;8.10;75.70;;;;;;6183406;23;20500;-79
2021/12/11 09:06:27;;;;;;;0.55;0.55;;;8.20;74.30;;;;;;6181246;23;20011;-78
2021/12/11 09:08:59;;;;;;;0.60;0.60;;;8.20;77.30;;;;;;6181301;23;20071;-79
2021/12/11 09:11:33;;;;;;;0.80;0.70;;;8.30;78.50;;;;;;6181562;23;19997;-79
2021/12/11 09:14:09;;;;;;;0.77;0.77;;;8.30;77.00;;;;;;6179696;23;20369;-79
2021/12/11 09:16:46;;;;;;;0.50;0.50;;;8.40;76.10;;;;;;6179359;23;20032;-80
2021/12/11 09:19:26;;;;;;;1.23;0.80;;;8.50;74.60;;;;;;6181304;23;20096;-79
2021/12/11 09:22:03;;;;;;;1.40;0.50;;;8.40;77.10;;;;;;6183434;23;20004;-80
2021/12/11 09:24:35;;;;;;;7.78;4.43;;;8.30;75.20;;;;;;6183287;23;19998;-79
2021/12/11 09:27:07;;;;;;;7.40;6.00;;;7.90;96.00;;;;;;6183327;23;19997;-79
2021/12/11 09:29:56;;;;;;;10.10;4.88;;;7.60;99.90;;;;;;6183624;23;20346;-79
2021/12/11 09:32:34;;;;;;;11.55;5.47;;;7.50;99.90;;;;;;6183532;23;20028;-79
2021/12/11 09:35:02;;;;;;;10.10;5.80;;;7.40;99.90;;;;;;6183216;23;20005;-79
2021/12/11 09:37:31;;;;;;;14.20;6.40;;;7.30;99.90;;;;;;6183261;23;20001;-79
2021/12/11 09:40:00;;;;;;;10.77;6.13;;;7.20;99.90;;;;;;6181776;23;20012;-79
2021/12/11 09:42:26;;;;;;;6.32;5.13;;;7.10;99.90;;;;;;6183487;23;20013;-80
2021/12/11 09:45:00;;;;;;;7.70;5.93;;;7.00;99.90;;;;;;6183263;23;20429;-79
2021/12/11 09:47:30;;;;;;;22.02;6.32;;;6.90;99.90;;;;;;6183511;23;20418;-79
2021/12/11 09:50:04;;;;;;;10.90;6.10;;;6.90;99.90;;;;;;6183309;23;20005;-79
2021/12/11 09:52:32;;;;;;;10.68;5.68;;;6.90;99.90;;;;;;6184167;23;20080;-79
2021/12/11 09:54:58;;;;;;;11.75;6.38;;;6.90;99.90;;;;;;6185131;23;19997;-79
2021/12/11 09:57:29;;;;;;;10.88;7.07;;;6.90;99.90;;;;;;6185093;23;20005;-79
2021/12/11 09:59:59;;;;;;;9.40;6.65;;;6.90;99.90;;;;;;6183283;23;20456;-79
2021/12/11 10:02:31;;;;;;;12.40;5.75;;;6.90;99.90;;;;;;6183281;23;20333;-79
2021/12/11 10:05:31;;;;;;;13.20;5.63;;;6.90;99.90;;;;;;6184916;23;20036;-79
2021/12/11 10:10:50;;;;;;;10.52;6.03;;;6.90;99.90;;;;;;6185049;23;20016;-79
2021/12/11 10:13:16;;;;;;;8.90;5.68;;;6.90;99.90;;;;;;6184839;23;20005;-79
2021/12/11 10:15:42;;;;;;;5.78;4.70;;;6.90;99.90;;;;;;6185033;23;20005;-79
2021/12/11 10:18:17;;;;;;;10.30;6.35;;;7.00;99.90;;;;;;6184802;23;20066;-79
2021/12/11 10:20:54;;;;;;;8.35;6.00;;;7.00;99.90;;;;;;6185035;23;20012;-79
2021/12/11 10:23:26;;;;;;;17.50;6.68;;;7.00;99.90;;;;;;6184988;23;20072;-79
2021/12/11 10:25:54;;;;;;;8.88;6.35;;;7.10;99.90;;;;;;6185367;23;20025;-79
2021/12/11 10:28:23;;;;;;;8.30;5.25;;;7.20;99.90;;;;;;6185422;23;20332;-80
2021/12/11 10:30:57;;;;;;;8.57;5.53;;;7.20;99.90;;;;;;6184627;23;20089;-79
2021/12/11 10:33:26;;;;;;;11.52;5.85;;;7.30;99.90;;;;;;6186212;23;20080;-79
2021/12/11 10:35:57;;;;;;;10.48;5.45;;;7.40;99.90;;;;;;6184396;23;20012;-79
2021/12/11 10:38:23;;;;;;;10.45;5.30;;;7.40;99.90;;;;;;6185211;23;20079;-79
2021/12/11 10:40:55;;;;;;;9.13;5.18;;;7.40;99.90;;;;;;6184838;23;20079;-79
2021/12/11 10:43:29;;;;;;;7.82;5.40;;;7.50;99.90;;;;;;6185348;23;20001;-79
2021/12/11 10:45:57;;;;;;;7.88;4.97;;;7.50;99.90;;;;;;6185396;23;20001;-78
2021/12/11 10:48:30;;;;;;;10.43;5.20;;;7.60;99.90;;;;;;6185134;23;20005;-79
2021/12/11 10:50:58;;;;;;;7.03;5.60;;;7.60;99.90;;;;;;6184753;23;20001;-79
2021/12/11 10:53:26;;;;;;;16.35;5.35;;;7.60;99.90;;;;;;6185018;23;20005;-79
2021/12/11 10:55:55;;;;;;;10.77;6.00;;;7.70;99.90;;;;;;6184792;23;20007;-79
2021/12/11 10:58:26;;;;;;;10.85;5.03;;;7.70;99.90;;;;;;6185336;23;20012;-79
2021/12/11 11:00:56;;;;;;;18.25;4.78;;;7.80;99.90;;;;;;6185432;23;20001;-79
2021/12/11 11:03:24;;;;;;;10.45;4.07;;;7.80;99.90;;;;;;6184101;23;20032;-79
2021/12/11 11:05:50;;;;;;;13.00;4.30;;;7.90;99.90;;;;;;6184567;23;20057;-79
2021/12/11 11:08:16;;;;;;;6.75;3.15;;;8.00;99.90;;;;;;6184535;23;19997;-79
2021/12/11 11:10:52;;;;;;;2.65;2.47;;;8.10;99.90;;;;;;6182878;23;20485;-79
2021/12/11 11:13:19;;;;;;;2.30;2.10;;;8.30;99.90;;;;;;6184400;23;20012;-79
2021/12/11 11:15:46;;;;;;;2.97;2.75;;;8.40;99.90;;;;;;6184436;23;20342;-80
2021/12/11 11:18:16;;;;;;;3.95;1.80;;;8.50;99.90;;;;;;6182813;23;20027;-79
2021/12/11 11:21:09;;;;;;;2.03;1.90;;;8.60;99.90;;;;;;6184158;23;20008;-79
2021/12/11 11:23:37;;;;;;;1.70;1.48;;;8.60;99.90;;;;;;6183390;23;20084;-79
2021/12/11 11:26:07;;;;;;;2.00;1.80;;;8.80;98.60;;;;;;6184225;23;19997;-79
2021/12/11 11:28:34;;;;;;;3.53;1.85;;;8.80;98.50;;;;;;6184146;23;20374;-79
2021/12/11 11:31:06;;;;;;;1.52;1.40;;;8.80;99.20;;;;;;6184361;23;20001;-80
2021/12/11 11:33:33;;;;;;;1.50;1.40;;;8.90;97.10;;;;;;6184261;23;20005;-79
2021/12/11 11:36:00;;;;;;;5.93;1.45;;;9.00;96.70;;;;;;6182856;23;20005;-79
2021/12/11 11:38:29;;;;;;;1.27;1.17;;;9.10;95.40;;;;;;6184319;23;20001;-79
2021/12/11 11:41:01;;;;;;;1.48;1.33;;;9.10;96.00;;;;;;6182630;23;20013;-80
2021/12/11 11:43:27;;;;;;;1.58;1.48;;;9.10;95.70;;;;;;6185227;23;20013;-80
2021/12/11 11:45:53;;;;;;;5.38;1.27;;;9.10;96.10;;;;;;6184882;23;20004;-80
2021/12/11 11:48:25;;;;;;;1.67;1.58;;;9.10;94.50;;;;;;6185554;23;20020;-80
2021/12/11 11:50:52;;;;;;;1.52;1.42;;;9.10;94.90;;;;;;6183771;23;20005;-80
2021/12/11 11:53:24;;;;;;;0.90;0.90;;;9.10;95.10;;;;;;6185667;23;20016;-80
2021/12/11 11:55:56;;;;;;;1.23;1.23;;;9.20;94.00;;;;;;6183276;23;20385;-80
2021/12/11 11:58:22;;;;;;;1.52;1.40;;;9.30;94.00;;;;;;6182035;23;20001;-80
2021/12/11 12:00:53;;;;;;;5.30;1.88;;;9.30;93.40;;;;;;6183609;23;20012;-79
2021/12/11 12:03:21;;;;;;;1.63;1.20;;;9.40;93.40;;;;;;6183114;23;20425;-79
2021/12/11 12:05:51;;;;;;;0.93;0.93;;;9.40;93.40;;;;;;6183351;23;20008;-80
2021/12/11 12:08:17;;;;;;;1.42;1.33;;;9.30;93.40;;;;;;6182841;23;20001;-79
2021/12/11 12:10:46;;;;;;;1.60;1.50;;;9.30;92.50;;;;;;6183425;23;20287;-79
2021/12/11 12:13:12;;;;;;;1.65;1.55;;;9.30;92.90;;;;;;6181882;23;20095;-80
2021/12/11 12:15:46;;;;;;;1.33;1.23;;;9.30;92.70;;;;;;6180901;23;20425;-79
2021/12/11 12:18:13;;;;;;;2.40;1.50;;;9.30;92.50;;;;;;6181911;23;20011;-79
2021/12/11 12:20:40;;;;;;;1.77;0.90;;;9.30;92.70;;;;;;6183268;23;20096;-79
2021/12/11 12:23:08;;;;;;;1.42;1.33;;;9.20;92.70;;;;;;6183005;23;20005;-79
2021/12/11 12:25:35;;;;;;;2.63;1.45;;;9.20;93.60;;;;;;6182927;23;20004;-80
2021/12/11 12:28:01;;;;;;;4.50;2.15;;;9.20;93.60;;;;;;6181665;23;20093;-79
2021/12/11 12:30:52;;;;;;;2.17;2.05;;;9.20;93.80;;;;;;6183023;23;20036;-79
2021/12/11 12:33:19;;;;;;;3.17;2.40;;;9.20;94.20;;;;;;6180103;23;20421;-80
2021/12/11 12:35:46;;;;;;;2.40;2.20;;;9.20;94.60;;;;;;6183466;23;20251;-79
2021/12/11 12:38:17;;;;;;;5.47;2.95;;;9.20;95.10;;;;;;6180818;23;20017;-79
2021/12/11 12:40:59;;;;;;;3.38;2.78;;;9.20;95.60;;;;;;6181289;23;20008;-79
2021/12/11 12:43:56;;;;;;;3.13;2.83;;;9.10;96.00;;;;;;6182857;23;20500;-80
2021/12/11 12:46:27;;;;;;;5.22;3.42;;;9.10;96.10;;;;;;6180012;23;20012;-80
2021/12/11 12:48:55;;;;;;;6.57;2.95;;;9.10;96.30;;;;;;6183489;23;20001;-80
2021/12/11 12:51:21;;;;;;;6.03;2.90;;;9.10;96.20;;;;;;6182207;23;20008;-72
2021/12/11 12:53:48;;;;;;;2.95;2.50;;;9.10;96.20;;;;;;6181107;23;20058;-72
2021/12/11 12:56:26;;;;;;;2.85;2.50;;;9.10;96.90;;;;;;6182244;23;19997;-72
2021/12/11 12:59:14;;;;;;;7.75;2.80;;;9.00;96.00;;;;;;6183018;23;20315;-72
2021/12/11 13:02:03;;;;;;;2.58;2.38;;;9.10;95.80;;;;;;6184141;23;20001;-72
2021/12/11 13:04:33;;;;;;;7.57;2.90;;;9.00;96.10;;;;;;6182901;23;20345;-72
2021/12/11 13:07:03;;;;;;;2.38;2.17;;;9.10;95.70;;;;;;6184484;23;20003;-72
2021/12/11 13:09:40;;;;;;;5.28;2.13;;;9.00;95.90;;;;;;6183840;23;20032;-72
2021/12/11 13:12:21;;;;;;;3.50;2.33;;;9.00;96.40;;;;;;6182868;23;20004;-72
2021/12/11 13:14:49;;;;;;;3.20;2.20;;;9.00;96.60;;;;;;6181613;23;20008;-72
2021/12/11 13:17:33;;;;;;;2.83;2.50;;;9.00;95.80;;;;;;6181037;23;20009;-72
2021/12/11 13:20:15;;;;;;;5.22;3.00;;;9.00;95.80;;;;;;6183091;23;20398;-72
2021/12/11 13:22:44;;;;;;;3.58;3.20;;;9.00;96.50;;;;;;6181907;23;20334;-72
2021/12/11 13:25:19;;;;;;;4.03;2.28;;;9.00;96.60;;;;;;6182035;23;20001;-79
2021/12/11 13:27:46;;;;;;;2.60;2.20;;;9.00;96.00;;;;;;6182083;23;20001;-79
2021/12/11 13:30:18;;;;;;;4.05;2.63;;;9.00;95.50;;;;;;6183087;23;20345;-79
2021/12/11 13:32:45;;;;;;;3.17;2.88;;;8.90;96.40;;;;;;6184755;23;20021;-79
2021/12/11 13:35:16;;;;;;;4.13;2.25;;;8.90;96.80;;;;;;6184613;23;20333;-79
2021/12/11 13:37:42;;;;;;;3.42;3.00;;;8.90;95.70;;;;;;6184639;23;20005;-79
2021/12/11 13:40:12;;;;;;;5.30;2.08;;;8.90;95.90;;;;;;6184297;23;20028;-79